Weather observations for the past three days for
Deming Municipal Airport
Metric (Imperial)
Date Time (mdt) Wind (kph) Vis. (km) Weather Sky Cond. Temperature (ºC) Relative Humidity Wind Chill (°C) Heat Index (°C) Pressure Precipitation (cm)
Air Dwpt 6 hour altimeter (cm) sea level (mb) 1 hr 3 hr 6 hr
Max. Min.
04 18:53 Vrbl 7 16.09 Fair CLR 30.6 14.4 37% 30 76.28 1009.1
04 17:53 NW 13 16.09 Fair CLR 32.2 12.8 33.3 27.2 31% 31 76.25 1008.3
04 16:53 NW 15 16.09 Mostly Cloudy SCT075 BKN090 32.2 13.9 33% 31 76.25 1008.2
04 15:53 W 15 G 31 16.09 A Few Clouds FEW070 32.8 15 34% 32 76.28 1008.7
04 14:53 Calm 16.09 Fair CLR 31.7 15.6 38% 31 76.33 1009.5
04 13:53 S 7 G 30 16.09 Fair CLR 31.1 16.1 40% 31 76.4 1010.6
04 12:53 Calm 16.09 A Few Clouds FEW040 28.9 17.2 49% 29 76.48 1011.9
04 11:53 Vrbl 7 16.09 A Few Clouds FEW034 27.8 17.8 27.8 19.4 55% 29 76.56 1012.2
04 10:53 W 15 16.09 Fair CLR 26.1 18.3 62% 27 76.58 1012.6
04 09:53 SW 13 16.09 Fair CLR 23.9 18.9 74% 25 76.56 1012.6
04 07:53 SW 6 16.09 Fair CLR 20 18.3 90% 76.53 1012.6
04 06:53 S 7 16.09 Fair CLR 19.4 18.3 93% 76.5 1012.0
04 05:53 Calm 16.09 Fair CLR 19.4 18.3 26.7 19.4 93% 76.48 1011.6 0.28
04 04:53 S 6 16.09 Fair CLR 19.4 18.9 97% 76.45 1011.4
04 03:53 SW 6 16.09 Partly Cloudy SCT110 19.4 18.9 97% 76.43 1010.9 0.03
04 02:53 NW 9 16.09 Light Rain BKN120 20 18.9 93% 76.43 1011.2 0.08 0.25
04 01:53 W 13 16.09 Light Rain OVC110 20 18.3 90% 76.5 1012.0 0.15
04 00:53 SW 31 G 50 14.48 Thunderstorm in Vicinity Light Rain FEW043 SCT055 OVC095 20 18.3 90% 76.5 1012.5 0.03
03 23:53 S 22 G 35 16.09 Overcast FEW075 OVC090 26.7 14.4 32.2 26.7 47% 27 76.48 1010.9
03 22:53 W 17 16.09 Fair CLR 27.2 13.9 44% 27 76.38 1009.9
03 21:53 W 20 16.09 Fair CLR 27.8 13.9 43% 28 76.33 1009.4
03 20:53 W 20 G 30 16.09 Fair CLR 28.9 12.8 37% 28 76.28 1008.6
03 19:53 W 6 16.09 Fair CLR 30 11.7 32% 29 76.23 1007.7
03 18:53 W 7 16.09 Fair CLR 31.1 11.7 30% 30 76.23 1007.7
03 17:53 Vrbl 11 16.09 Fair CLR 32.2 11.7 33.3 27.8 28% 31 76.23 1007.6
03 16:53 Vrbl 6 16.09 Fair CLR 31.7 12.2 30% 31 76.23 1007.6
03 15:53 Calm 16.09 Fair CLR 31.7 12.2 30% 31 76.28 1008.2
03 14:53 Calm 16.09 Fair CLR 30.6 13.3 35% 30 76.35 1009.4
03 13:53 NW 7 16.09 Fair CLR 29.4 13.9 39% 29 76.43 1010.4
03 12:53 SW 13 16.09 Overcast FEW039 BKN090 OVC110 28.3 13.9 41% 28 76.48 1011.0
03 11:53 W 13 16.09 A Few Clouds FEW110 29.4 12.8 29.4 23.3 36% 29 76.53 1011.6
03 10:53 W 17 16.09 Partly Cloudy SCT110 27.2 15 47% 27 76.56 1011.9
03 09:53 Calm 16.09 A Few Clouds FEW100 25.6 15 52% 26 76.56 1012.1
03 08:53 W 15 16.09 A Few Clouds FEW120 25 15 54% 26 76.58 1012.4
03 07:53 W 17 16.09 Fair CLR 23.9 15 58% 25 76.58 1012.3
03 06:53 SW 15 16.09 A Few Clouds FEW090 23.3 15 60% 76.5 1011.3
03 05:53 W 19 16.09 Fair CLR 23.3 13.9 27.8 23.3 56% 76.45 1010.7
03 04:53 SW 17 16.09 Fair CLR 23.3 14.4 57% 76.43 1010.3
03 03:53 W 13 16.09 Fair CLR 24.4 15 56% 26 76.43 1010.0
03 02:53 SW 13 16.09 Fair CLR 24.4 14.4 54% 26 76.45 1010.2
03 01:53 SW 19 G 35 16.09 Fair CLR 25.6 13.9 48% 26 76.45 1010.3
03 00:53 W 17 16.09 Fair CLR 27.2 11.1 37% 27 76.4 1009.7
02 23:53 W 15 16.09 Fair CLR 27.8 10.6 33.9 27.8 34% 27 76.4 1009.9
02 22:53 W 17 16.09 Fair CLR 28.9 10 31% 28 76.43 1010.3
02 21:53 W 19 16.09 Fair CLR 29.4 9.4 29% 28 76.4 1009.9
02 20:53 W 19 16.09 Fair CLR 31.1 8.3 24% 29 76.35 1009.2
02 19:53 W 19 16.09 A Few Clouds FEW120 31.7 8.9 24% 30 76.3 1008.8
02 18:53 W 17 16.09 Fair CLR 32.8 8.3 22% 31 76.25 1008.4
02 17:53 Calm 16.09 Fair CLR 33.3 7.8 35.6 29.4 21% 31 76.25 1008.3
02 16:53 Vrbl 6 16.09 Fair CLR 34.4 8.3 20% 32 76.3 1008.4
02 15:53 Vrbl 9 16.09 Fair CLR 34.4 8.3 20% 32 76.35 1009.0
02 14:53 Vrbl 9 G 33 16.09 Fair CLR 33.9 7.8 20% 32 76.4 1010.2
02 13:53 Calm 16.09 Fair CLR 33.9 7.8 20% 32 76.48 1011.1
02 12:53 Vrbl 7 16.09 Fair CLR 31.7 6.7 21% 30 76.56 1012.2
02 11:53 SW 11 16.09 Fair CLR 30 10 30 19.4 29% 29 76.63 1013.2
02 10:53 W 17 16.09 A Few Clouds FEW120 27.8 11.7 37% 27 76.66 1013.8
02 09:53 SW 20 16.09 Mostly Cloudy BKN110 27.2 11.1 37% 27 76.66 1013.7
02 08:53 SW 15 16.09 Fair CLR 25 11.7 43% 26 76.63 1013.5
02 07:53 Calm 16.09 Fair CLR 21.7 10 47% 76.61 1013.4
02 06:53 SW 6 16.09 Fair CLR 20 10.6 55% 76.56 1012.6
02 05:53 Calm 16.09 Fair CLR 20.6 10.6 25 20 53% 76.53 1012.1
02 04:53 W 11 16.09 Fair CLR 22.8 11.1 48% 76.53 1011.6
02 03:53 W 15 16.09 Fair CLR 23.3 10 43% 76.5 1011.5
02 02:53 SW 11 16.09 Fair CLR 21.7 8.3 42% 76.53 1011.8
02 01:53 SW 17 16.09 Fair CLR 22.2 8.9 43% 76.53 1011.9
02 00:53 W 7 16.09 Fair CLR 23.9 8.9 39% 25 76.53 1011.8
01 23:53 NW 13 16.09 A Few Clouds FEW085 25 8.3 33.3 25 35% 26 76.5 1011.8
01 22:53 W 13 16.09 Fair CLR 26.1 8.3 32% 26 76.53 1011.9
01 21:53 W 7 16.09 Fair CLR 26.7 8.9 33% 26 76.5 1011.7
01 20:53 SW 9 16.09 Fair CLR 27.8 8.3 29% 27 76.43 1010.9
01 19:53 W 13 16.09 Fair CLR 29.4 8.9 28% 28 76.35 1009.8
Date Time (mdt) Wind (kph) Vis. (km) Weather Sky Cond. Air Dwpt Max. Min. Relative Humidity Wind Chill (°C) Heat Index (°C) altimeter (cm) sea level (mb) 1 hr 3 hr 6 hr
6 hour
Temperature (ºC) Pressure Precipitation (cm)